RKV weather

Reykjavik Airport
Reykjavik, Capital Region, Iceland

Public forecast

Using degrees Celsius for public forecast. Weather courtesy of forecast.io.

METAR (pilot weather report)

Retrieved 2018/11/16 09:00 UTC (44 minutes ago):

BIRK 160900Z 08012KT 050V110 9999 FEW020 BKN200 03/M01 Q1001

TAF (pilot weather forecast)

Retrieved 2018/11/16 09:03 UTC (41 minutes ago):

TAF BIRK 160800Z 1609/1709 09020G20KT 9999 SCT012 BKN025 TX11/1709Z TN03/1609Z BECMG 1708/1611 09020G30KT BKN025 BECMG 1614/1616 11035G50KT 5000 RADZ BKN015 OVC025 BECMG 1621/1623 13030G43KT